createdAt,value
2023-04-06T00:04:04.992Z,64979.06
2023-04-06T00:09:09.318Z,64995.41
2023-04-06T00:14:14.746Z,65001.34
2023-04-06T00:19:20.355Z,65008.34
2023-04-06T00:24:24.403Z,64978.22
2023-04-06T00:29:28.355Z,65010.91
2023-04-06T00:34:33.863Z,65032.56
2023-04-06T00:39:37.867Z,65025.34
2023-04-06T00:44:41.938Z,65030.13
2023-04-06T00:49:47.642Z,64996.78
2023-04-06T00:54:51.694Z,65010.16
2023-04-06T00:59:58.390Z,64999.88
2023-04-06T01:05:04.344Z,65006.34
2023-04-06T01:10:26.742Z,65018.88
2023-04-06T01:15:40.249Z,65010.47
2023-04-06T01:20:47.757Z,65011.34
2023-04-06T01:25:54.944Z,65003.91
2023-04-06T01:30:59.796Z,65026.19
2023-04-06T01:36:26.721Z,65010.06
2023-04-06T01:41:40.657Z,65019.72
2023-04-06T01:46:44.974Z,65014.09
2023-04-06T01:51:55.451Z,65012.50
2023-04-06T01:57:01.375Z,65020.47
2023-04-06T02:02:14.040Z,65023.13
2023-04-06T02:07:23.744Z,64993.50
2023-04-06T02:12:29.356Z,64993.38
2023-04-06T02:17:33.532Z,64990.94
2023-04-06T02:22:37.771Z,64989.25
2023-04-06T02:27:43.137Z,64992.53
2023-04-06T02:32:47.212Z,64986.47
2023-04-06T02:37:51.621Z,64989.78
2023-04-06T02:42:57.100Z,65046.56
2023-04-06T02:48:07.595Z,64992.84
2023-04-06T02:53:11.912Z,65117.88
2023-04-06T02:58:18.872Z,65026.81
2023-04-06T03:03:30.095Z,65013.88
2023-04-06T03:08:38.633Z,64996.34
2023-04-06T03:13:48.150Z,64965.16
2023-04-06T03:18:53.605Z,64993.91
2023-04-06T03:23:58.847Z,64990.31
2023-04-06T03:29:06.370Z,65050.19
2023-04-06T03:34:11.228Z,64981.81
2023-04-06T03:39:15.423Z,65013.44
2023-04-06T03:44:22.273Z,65038.94
2023-04-06T03:49:26.551Z,65022.59
2023-04-06T03:54:31.575Z,65062.50
2023-04-06T03:59:37.317Z,64972.91
2023-04-06T04:04:41.414Z,65020.47
2023-04-06T04:09:45.629Z,64990.31
2023-04-06T04:14:51.142Z,64991.38
2023-04-06T04:19:55.203Z,65018.31
2023-04-06T04:24:59.299Z,65002.84
2023-04-06T04:30:06.734Z,65017.25
2023-04-06T04:35:15.156Z,65042.56
2023-04-06T04:40:23.196Z,65016.09
2023-04-06T04:45:36.092Z,65016.00
2023-04-06T04:50:51.863Z,64978.00
2023-04-06T04:56:02.966Z,64978.22
2023-04-06T05:01:11.494Z,64974.16
2023-04-06T05:06:19.263Z,64980.13
2023-04-06T05:11:25.249Z,64987.53
2023-04-06T05:16:37.900Z,65027.78
2023-04-06T05:21:42.474Z,65006.97
2023-04-06T05:26:47.488Z,65075.16
2023-04-06T05:31:59.431Z,65034.25
2023-04-06T05:37:03.755Z,64995.06
2023-04-06T05:42:08.394Z,65113.28
2023-04-06T05:47:29.427Z,65040.63
2023-04-06T05:52:44.127Z,64969.50
2023-04-06T05:57:50.932Z,64973.75
2023-04-06T06:02:58.144Z,65024.69
2023-04-06T06:08:06.356Z,64982.88
2023-04-06T06:13:11.302Z,65004.31
2023-04-06T06:18:17.409Z,65040.22
2023-04-06T06:23:21.579Z,65001.44
2023-04-06T06:28:27.387Z,64987.00
2023-04-06T06:33:32.991Z,64999.75
2023-04-06T06:38:37.171Z,64989.56
2023-04-06T06:43:42.654Z,65011.34
2023-04-06T06:48:50.649Z,65043.81
2023-04-06T06:53:54.806Z,65022.69
2023-04-06T06:58:59.265Z,65047.66
2023-04-06T07:04:04.763Z,65024.69
2023-04-06T07:09:08.862Z,64998.16
2023-04-06T07:14:13.376Z,65041.59
2023-04-06T07:19:18.847Z,65013.56
2023-04-06T07:24:22.926Z,65067.63
2023-04-06T07:29:26.965Z,65046.38
2023-04-06T07:34:33.087Z,65023.66
2023-04-06T07:39:37.205Z,65010.47
2023-04-06T07:44:42.025Z,65002.41
2023-04-06T07:49:48.698Z,65066.97
2023-04-06T07:54:54.099Z,65020.88
2023-04-06T07:59:58.115Z,65068.13
2023-04-06T08:05:03.772Z,65138.81
2023-04-06T08:10:08.329Z,65074.41
2023-04-06T08:15:12.999Z,65062.41
2023-04-06T08:20:18.676Z,65078.22
2023-04-06T08:25:22.530Z,65034.59
2023-04-06T08:30:26.582Z,65072.50
2023-04-06T08:35:32.326Z,65069.72
2023-04-06T08:40:39.288Z,65046.38
2023-04-06T08:45:43.672Z,65028.53
2023-04-06T08:50:49.447Z,65096.94
2023-04-06T08:55:53.631Z,65042.53
2023-04-06T09:00:58.365Z,65127.84
2023-04-06T09:06:05.347Z,65070.25
2023-04-06T09:11:10.296Z,65145.28
2023-04-06T09:16:14.402Z,65162.72
2023-04-06T09:21:24.484Z,65116.28
2023-04-06T09:26:29.888Z,65160.69
2023-04-06T09:31:34.637Z,65088.97
2023-04-06T09:36:42.258Z,65086.41
2023-04-06T09:41:52.610Z,65099.47
2023-04-06T09:47:00.899Z,65097.56
2023-04-06T09:52:10.801Z,65064.44
2023-04-06T09:57:27.428Z,65087.47
2023-04-06T10:02:40.256Z,65100.44
2023-04-06T10:07:59.385Z,65094.81
2023-04-06T10:13:05.958Z,65066.75
2023-04-06T10:18:11.224Z,65071.44
2023-04-06T10:23:22.531Z,65155.38
2023-04-06T10:28:27.655Z,65094.91
2023-04-06T10:33:31.735Z,65154.88
2023-04-06T10:38:40.682Z,65114.03
2023-04-06T10:43:47.539Z,65173.88
2023-04-06T10:48:52.885Z,65208.03
2023-04-06T10:54:00.454Z,65178.69
2023-04-06T10:59:04.947Z,65203.25
2023-04-06T11:04:10.920Z,65239.41
2023-04-06T11:09:25.986Z,65184.84
2023-04-06T11:14:30.184Z,65125.63
2023-04-06T11:19:34.613Z,65184.09
2023-04-06T11:24:40.001Z,65170.28
2023-04-06T11:29:47.021Z,65182.63
2023-04-06T11:34:51.262Z,65218.13
2023-04-06T11:39:58.225Z,65202.69
2023-04-06T11:45:02.623Z,65245.13
2023-04-06T11:50:11.206Z,65279.19
2023-04-06T11:55:18.614Z,65266.41
2023-04-06T12:00:23.799Z,65297.81
2023-04-06T12:05:28.302Z,65264.94
2023-04-06T12:10:33.864Z,65244.19
2023-04-06T12:15:37.871Z,65261.75
2023-04-06T12:20:41.932Z,65304.41
2023-04-06T12:25:47.714Z,65337.31
2023-04-06T12:30:52.223Z,65234.81
2023-04-06T12:35:56.558Z,65238.97
2023-04-06T12:41:02.081Z,65216.44
2023-04-06T12:46:06.408Z,65293.13
2023-04-06T12:51:10.486Z,65251.09
2023-04-06T12:56:17.973Z,65342.19
2023-04-06T13:01:22.377Z,65294.19
2023-04-06T13:06:28.653Z,65335.72
2023-04-06T13:11:34.756Z,65234.81
2023-04-06T13:16:38.849Z,65315.69
2023-04-06T13:21:42.897Z,65337.84
2023-04-06T13:26:48.608Z,65270.88
2023-04-06T13:31:52.672Z,65259.63
2023-04-06T13:36:56.671Z,65349.03
2023-04-06T13:42:03.879Z,65345.19
2023-04-06T13:47:08.302Z,65264.94
2023-04-06T13:52:12.541Z,65302.19
2023-04-06T13:57:18.163Z,65310.69
2023-04-06T14:02:24.013Z,65291.97
2023-04-06T14:07:28.317Z,65295.81
2023-04-06T14:12:33.819Z,65330.81
2023-04-06T14:17:38.029Z,65295.38
2023-04-06T14:22:42.710Z,65206.09
2023-04-06T14:27:48.274Z,65261.22
2023-04-06T14:32:52.407Z,65168.56
2023-04-06T14:37:57.882Z,65204.31
2023-04-06T14:43:03.294Z,65272.91
2023-04-06T14:48:08.282Z,65204.72
2023-04-06T14:53:12.605Z,65281.97
2023-04-06T14:58:18.098Z,65162.84
2023-04-06T15:03:22.423Z,65284.94
2023-04-06T15:08:27.090Z,65229.81
2023-04-06T15:13:32.673Z,65259.09
2023-04-06T15:18:37.182Z,65300.16
2023-04-06T15:23:41.508Z,65231.53
2023-04-06T15:28:47.118Z,65244.72
2023-04-06T15:33:51.157Z,65296.34
2023-04-06T15:38:55.573Z,65244.19
2023-04-06T15:44:01.157Z,65166.44
2023-04-06T15:49:05.810Z,65146.66
2023-04-06T15:54:09.718Z,65144.13
2023-04-06T15:59:15.493Z,65196.84
2023-04-06T16:04:21.078Z,65219.81
2023-04-06T16:09:25.034Z,65273.78
2023-04-06T16:14:30.402Z,65261.75
2023-04-06T16:19:34.470Z,65282.81
2023-04-06T16:24:38.962Z,65278.44
2023-04-06T16:29:44.294Z,65250.56
2023-04-06T16:34:48.212Z,65251.00
2023-04-06T16:39:55.549Z,65207.16
2023-04-06T16:45:01.167Z,65169.22
2023-04-06T16:50:06.559Z,65247.28
2023-04-06T16:55:12.465Z,65217.59
2023-04-06T17:00:19.357Z,65211.84
2023-04-06T17:05:26.585Z,65180.91
2023-04-06T17:10:34.455Z,65183.03
2023-04-06T17:15:46.829Z,65172.81
2023-04-06T17:20:50.932Z,65200.03
2023-04-06T17:25:57.542Z,65197.91
2023-04-06T17:31:03.238Z,65243.66
2023-04-06T17:36:09.918Z,65236.22
2023-04-06T17:41:14.833Z,65236.66
2023-04-06T17:46:21.428Z,65225.34
2023-04-06T17:51:26.549Z,65244.19
2023-04-06T17:56:30.880Z,65218.22
2023-04-06T18:01:36.489Z,65164.53
2023-04-06T18:06:40.482Z,65177.72
2023-04-06T18:11:44.680Z,65165.81
2023-04-06T18:16:50.097Z,65159.63
2023-04-06T18:21:54.023Z,65201.22
2023-04-06T18:26:57.975Z,65229.81
2023-04-06T18:32:03.456Z,65239.94
2023-04-06T18:37:07.574Z,65221.44
2023-04-06T18:42:11.816Z,65219.81
2023-04-06T18:47:17.375Z,65162.19
2023-04-06T18:52:22.776Z,65171.97
2023-04-06T18:57:26.723Z,65183.34
2023-04-06T19:02:32.367Z,65231.53
2023-04-06T19:07:37.592Z,65169.31
2023-04-06T19:12:41.660Z,65211.22
2023-04-06T19:17:47.939Z,65223.66
2023-04-06T19:22:52.261Z,65243.22
2023-04-06T19:27:57.717Z,65214.94
2023-04-06T19:33:03.688Z,65191.66
2023-04-06T19:38:07.976Z,65208.03
2023-04-06T19:43:11.946Z,65229.81
2023-04-06T19:48:17.380Z,65216.00
2023-04-06T19:53:24.560Z,65270.47
2023-04-06T19:58:28.663Z,65229.81
2023-04-06T20:03:34.227Z,65222.91
2023-04-06T20:08:38.330Z,65241.31
2023-04-06T20:13:42.292Z,65205.38
2023-04-06T20:18:47.621Z,65205.38
2023-04-06T20:23:51.828Z,65153.69
2023-04-06T20:28:55.871Z,65187.81
2023-04-06T20:34:01.702Z,65191.97
2023-04-06T20:39:06.056Z,65201.00
2023-04-06T20:44:12.883Z,65231.84
2023-04-06T20:49:22.180Z,65162.94
2023-04-06T20:54:27.558Z,65156.97
2023-04-06T20:59:31.512Z,65147.94
2023-04-06T21:04:37.368Z,65170.16
2023-04-06T21:09:42.456Z,65137.75
2023-04-06T21:14:46.898Z,65235.56
2023-04-06T21:19:53.324Z,65169.63
2023-04-06T21:24:57.382Z,65198.97
2023-04-06T21:30:01.428Z,65209.19
2023-04-06T21:35:07.827Z,65208.34
2023-04-06T21:40:13.920Z,65190.59
2023-04-06T21:45:18.064Z,65187.81
2023-04-06T21:50:23.540Z,65196.75
2023-04-06T21:55:27.457Z,65173.34
2023-04-06T22:00:31.496Z,65167.09
2023-04-06T22:05:37.653Z,65157.50
2023-04-06T22:10:41.696Z,65216.00
2023-04-06T22:15:45.823Z,65219.72
2023-04-06T22:20:51.499Z,65243.13
2023-04-06T22:25:58.064Z,65234.94
2023-04-06T22:31:01.954Z,65193.56
2023-04-06T22:36:07.796Z,65190.69
2023-04-06T22:41:12.055Z,65210.16
2023-04-06T22:46:15.977Z,65166.13
2023-04-06T22:51:21.747Z,65146.66
2023-04-06T22:56:25.835Z,65145.50
2023-04-06T23:01:29.967Z,65184.72
2023-04-06T23:06:35.445Z,65230.16
2023-04-06T23:11:39.270Z,65193.56
2023-04-06T23:16:43.397Z,65190.03
2023-04-06T23:21:48.759Z,65152.63
2023-04-06T23:26:52.831Z,65155.81
2023-04-06T23:31:57.008Z,65173.47
2023-04-06T23:37:03.218Z,65164.00
2023-04-06T23:42:07.317Z,65275.59
2023-04-06T23:47:11.932Z,65207.91
2023-04-06T23:52:17.355Z,65185.25
2023-04-06T23:57:21.366Z,65236.09
